Time;durP1;ratioP1;P1;durP2;ratioP2;P2;SDS_P1;SDS_P2;PMS_P1;PMS_P2;Temp;Humidity;BMP_temperature;BMP_pressure;BME280_temperature;BME280_humidity;BME280_pressure;Samples;Min_cycle;Max_cycle;Signal;HPM_P1;HPM_P2
2023/06/03 00:01:58;;;;;;;10.07;5.75;;;;;;;20.51;61.13;99591.19;5040782;28;20073;-72
2023/06/03 00:04:23;;;;;;;9.97;5.53;;;;;;;20.42;61.50;99583.69;5039973;28;20033;-72
2023/06/03 00:06:49;;;;;;;9.75;4.85;;;;;;;20.40;61.32;99582.94;5040020;28;20063;-72
2023/06/03 00:09:14;;;;;;;12.17;5.90;;;;;;;20.33;61.71;99582.41;5039827;28;20537;-72
2023/06/03 00:11:40;;;;;;;9.63;5.10;;;;;;;20.26;62.12;99586.38;5040028;28;20017;-72
2023/06/03 00:14:06;;;;;;;8.93;4.68;;;;;;;20.21;62.15;99589.28;5039951;28;20021;-72
2023/06/03 00:16:34;;;;;;;8.20;4.50;;;;;;;20.18;62.15;99582.28;5039760;28;20092;-72
2023/06/03 00:19:00;;;;;;;9.15;4.65;;;;;;;20.18;61.68;99582.28;5039795;28;20017;-72
2023/06/03 00:21:27;;;;;;;8.00;4.60;;;;;;;20.20;61.98;99582.22;5039780;28;20033;-72
2023/06/03 00:23:53;;;;;;;9.88;4.57;;;;;;;20.20;61.85;99576.88;5041167;28;20025;-72
2023/06/03 00:26:18;;;;;;;9.73;4.50;;;;;;;20.19;61.89;99572.47;5037988;28;20026;-72
2023/06/03 00:28:44;;;;;;;9.77;4.63;;;;;;;20.18;61.87;99573.44;5039361;28;20346;-72
2023/06/03 00:31:10;;;;;;;10.20;4.50;;;;;;;20.13;61.76;99572.78;5039790;28;20022;-72
2023/06/03 00:33:36;;;;;;;11.40;5.07;;;;;;;20.03;62.43;99573.31;5039560;28;20021;-72
2023/06/03 00:36:01;;;;;;;9.70;4.60;;;;;;;19.87;62.72;99575.94;5039822;28;20163;-72
2023/06/03 00:38:27;;;;;;;10.60;4.87;;;;;;;19.76;62.98;99579.16;5039298;28;20029;-72
2023/06/03 00:40:52;;;;;;;9.10;4.68;;;;;;;19.68;62.77;99581.41;5021548;28;20605;-72
2023/06/03 00:43:17;;;;;;;10.70;4.60;;;;;;;19.60;63.28;99588.94;5047044;28;20444;-72
2023/06/03 00:45:43;;;;;;;10.10;4.37;;;;;;;19.53;63.31;99587.53;5039379;28;20022;-71
2023/06/03 00:48:08;;;;;;;12.37;4.53;;;;;;;19.45;63.38;99586.13;5039178;28;20060;-72
2023/06/03 00:50:35;;;;;;;12.07;6.38;;;;;;;19.38;63.61;99583.88;5039293;28;20072;-72
2023/06/03 00:53:02;;;;;;;9.77;4.23;;;;;;;19.32;63.61;99585.03;5021198;28;20029;-72
2023/06/03 00:55:29;;;;;;;7.72;4.28;;;;;;;19.27;63.66;99582.59;5039419;28;20022;-72
2023/06/03 00:57:54;;;;;;;10.90;5.18;;;;;;;19.26;63.94;99585.34;5021312;28;20029;-72
2023/06/03 01:00:20;;;;;;;8.95;4.78;;;;;;;19.18;63.90;99594.63;5021029;28;20030;-72
2023/06/03 01:02:46;;;;;;;9.97;4.60;;;;;;;19.12;64.13;99586.06;5021969;28;20102;-72
2023/06/03 01:05:12;;;;;;;10.40;4.35;;;;;;;19.06;64.50;99596.13;5039060;28;20060;-72
2023/06/03 01:07:50;;;;;;;10.00;4.60;;;;;;;18.98;64.92;99592.94;5038726;28;20029;-72
2023/06/03 01:10:30;;;;;;;9.35;4.72;;;;;;;18.84;65.86;99593.59;5021315;28;20029;-72
2023/06/03 01:13:14;;;;;;;10.45;5.07;;;;;;;18.78;65.62;99591.25;5039150;28;20036;-72
2023/06/03 01:15:43;;;;;;;10.43;5.43;;;;;;;18.73;65.27;99587.94;5020934;28;20125;-72
2023/06/03 01:18:11;;;;;;;11.63;5.18;;;;;;;18.70;65.39;99593.44;5038491;28;20155;-72
2023/06/03 01:20:37;;;;;;;16.33;5.50;;;;;;;18.67;65.33;99591.75;5038570;28;20033;-72
2023/06/03 01:23:23;;;;;;;10.25;4.28;;;;;;;18.64;65.71;99591.91;5038548;28;20036;-72
2023/06/03 01:25:58;;;;;;;12.82;5.82;;;;;;;18.64;65.35;99592.75;5010415;28;20034;-72
2023/06/03 01:28:24;;;;;;;7.75;4.35;;;;;;;18.69;65.12;99586.34;5038642;28;20026;-72
2023/06/03 01:30:51;;;;;;;9.75;3.97;;;;;;;18.73;64.86;99590.59;5038186;28;20556;-72
2023/06/03 01:33:21;;;;;;;8.77;3.63;;;;;;;18.75;64.62;99581.56;5038487;28;20067;-72
2023/06/03 01:35:52;;;;;;;8.57;3.65;;;;;;;18.76;64.56;99582.44;5038534;28;20120;-72
2023/06/03 01:38:18;;;;;;;9.63;3.28;;;;;;;18.79;64.37;99583.16;5038203;28;20116;-72
2023/06/03 01:40:44;;;;;;;11.77;3.78;;;;;;;18.82;64.26;99582.16;5038183;28;20131;-72
2023/06/03 01:43:10;;;;;;;10.48;3.40;;;;;;;18.87;64.06;99584.59;5027905;28;20033;-72
2023/06/03 01:45:35;;;;;;;7.90;3.37;;;;;;;18.90;63.96;99585.28;5038223;28;20108;-72
2023/06/03 01:48:01;;;;;;;10.90;3.70;;;;;;;18.91;63.64;99587.00;5037967;28;20136;-72
2023/06/03 01:50:26;;;;;;;8.65;3.38;;;;;;;18.87;63.62;99585.44;5020471;28;20025;-72
2023/06/03 01:52:52;;;;;;;12.13;3.33;;;;;;;18.88;63.83;99587.16;5037926;28;20044;-72
2023/06/03 01:55:17;;;;;;;10.87;3.50;;;;;;;18.89;63.64;99586.22;5038183;28;20057;-72
2023/06/03 01:57:43;;;;;;;8.55;3.30;;;;;;;18.91;63.40;99587.00;5020220;28;20033;-72
2023/06/03 02:00:09;;;;;;;7.40;3.10;;;;;;;18.92;63.74;99583.41;5037819;28;20030;-72
2023/06/03 02:02:35;;;;;;;8.50;3.08;;;;;;;18.94;63.47;99581.53;5038489;28;20112;-72
2023/06/03 02:05:01;;;;;;;8.70;3.25;;;;;;;18.93;63.54;99574.50;5037787;28;20029;-72
2023/06/03 02:07:26;;;;;;;7.17;3.20;;;;;;;18.94;63.47;99581.53;5037692;28;20035;-72
2023/06/03 02:09:53;;;;;;;9.60;2.90;;;;;;;18.96;63.43;99581.44;5019501;28;20071;-72
2023/06/03 02:12:21;;;;;;;9.65;3.20;;;;;;;18.96;63.33;99585.94;5020017;28;20405;-72
2023/06/03 02:14:47;;;;;;;8.67;3.30;;;;;;;18.94;63.26;99581.53;5037277;28;20037;-72
2023/06/03 02:17:13;;;;;;;8.43;3.38;;;;;;;18.93;63.39;99576.28;5037587;28;20390;-72
2023/06/03 02:19:39;;;;;;;7.90;3.43;;;;;;;18.90;63.10;99574.63;5037692;28;20029;-72
2023/06/03 02:22:05;;;;;;;8.88;3.38;;;;;;;18.85;63.31;99581.13;5037461;28;20025;-72
2023/06/03 02:24:32;;;;;;;9.25;3.10;;;;;;;18.80;63.45;99584.88;5037497;28;20029;-72
2023/06/03 02:27:01;;;;;;;7.82;3.33;;;;;;;18.77;63.62;99585.03;5018264;28;20029;-72
2023/06/03 02:29:27;;;;;;;11.57;3.80;;;;;;;18.77;63.44;99589.50;5037513;28;20441;-72
2023/06/03 02:31:57;;;;;;;7.07;3.40;;;;;;;18.77;63.21;99593.03;5037482;28;20564;-72
2023/06/03 02:34:23;;;;;;;6.80;2.90;;;;;;;18.76;63.47;99583.31;5037573;28;20555;-72
2023/06/03 02:36:49;;;;;;;8.43;3.40;;;;;;;18.76;63.11;99587.78;5037326;28;20030;-72
2023/06/03 02:39:16;;;;;;;7.80;3.05;;;;;;;18.76;63.26;99585.13;5037268;28;20025;-72
2023/06/03 02:41:43;;;;;;;8.32;2.90;;;;;;;18.74;63.26;99584.34;5019401;28;20037;-72
2023/06/03 02:44:08;;;;;;;7.57;3.30;;;;;;;18.71;63.42;99581.81;5044671;28;20443;-72
2023/06/03 02:46:34;;;;;;;8.20;3.20;;;;;;;18.67;63.48;99577.56;5036780;28;20072;-72
2023/06/03 02:49:02;;;;;;;7.35;2.95;;;;;;;18.62;63.43;99581.31;5037306;28;20120;-72
2023/06/03 02:51:28;;;;;;;7.68;3.25;;;;;;;18.60;63.40;99588.53;5037074;28;20026;-72
2023/06/03 02:53:53;;;;;;;7.37;2.93;;;;;;;18.58;63.49;99584.22;5037037;28;20029;-72
2023/06/03 02:56:19;;;;;;;6.40;2.93;;;;;;;18.58;63.48;99585.06;5037020;28;20029;-72
2023/06/03 02:58:45;;;;;;;7.72;2.88;;;;;;;18.59;63.26;99586.78;5037004;28;20119;-72
2023/06/03 03:01:11;;;;;;;8.47;3.20;;;;;;;18.56;63.50;99586.94;5037231;28;20025;-72
2023/06/03 03:03:36;;;;;;;7.95;3.30;;;;;;;18.52;63.46;99585.38;5019298;28;20459;-72
2023/06/03 03:06:03;;;;;;;8.63;3.10;;;;;;;18.47;63.47;99587.41;5019028;28;20053;-72
2023/06/03 03:08:29;;;;;;;8.27;3.47;;;;;;;18.40;63.78;99588.59;5036628;28;20103;-72
2023/06/03 03:10:55;;;;;;;6.50;2.90;;;;;;;18.32;63.77;99588.97;5036589;28;20036;-72
2023/06/03 03:13:21;;;;;;;8.50;3.40;;;;;;;18.24;64.02;99586.69;5019248;28;20026;-72
2023/06/03 03:15:46;;;;;;;8.50;3.25;;;;;;;18.19;64.04;99584.22;5018877;28;20037;-72
2023/06/03 03:18:11;;;;;;;7.70;2.97;;;;;;;18.17;64.23;99586.09;5036617;28;20517;-72
2023/06/03 03:20:37;;;;;;;10.63;3.30;;;;;;;18.16;63.90;99583.50;5036113;28;20062;-72
2023/06/03 03:23:03;;;;;;;6.53;2.80;;;;;;;18.16;63.99;99578.16;5036124;28;20075;-72
2023/06/03 03:25:28;;;;;;;8.20;2.97;;;;;;;18.15;64.16;99585.31;5035540;28;20112;-72
2023/06/03 03:27:54;;;;;;;8.57;3.23;;;;;;;18.13;64.08;99595.19;5036718;28;20101;-72
2023/06/03 03:30:19;;;;;;;7.88;3.78;;;;;;;18.07;64.25;99592.78;5036299;28;20160;-72
2023/06/03 03:32:45;;;;;;;7.63;3.53;;;;;;;17.98;64.52;99594.06;5036520;28;20401;-72
2023/06/03 03:35:15;;;;;;;8.40;4.33;;;;;;;17.90;64.99;99593.53;5036545;28;20548;-72
2023/06/03 03:37:41;;;;;;;9.15;3.28;;;;;;;17.81;64.99;99599.28;5036449;28;20490;-72
2023/06/03 03:40:16;;;;;;;9.10;3.95;;;;;;;17.76;65.12;99592.38;5036423;28;20033;-72
2023/06/03 03:42:41;;;;;;;8.63;3.88;;;;;;;17.73;65.12;99605.81;5043384;28;20029;-72
2023/06/03 03:45:16;;;;;;;9.40;3.80;;;;;;;17.68;65.42;99599.81;5036522;28;20038;-72
2023/06/03 03:47:41;;;;;;;10.05;3.33;;;;;;;17.63;65.48;99604.47;5036243;28;20483;-71
2023/06/03 03:50:41;;;;;;;8.10;4.03;;;;;;;17.56;66.48;99601.22;5036567;28;20124;-72
2023/06/03 03:53:14;;;;;;;9.20;3.70;;;;;;;17.55;65.58;99598.63;5036297;28;20033;-72
2023/06/03 03:55:50;;;;;;;9.10;3.45;;;;;;;17.56;65.56;99597.72;5036433;28;20033;-72
2023/06/03 03:58:25;;;;;;;8.93;3.97;;;;;;;17.54;65.79;99602.22;5018743;28;20096;-72
2023/06/03 04:00:52;;;;;;;8.63;3.88;;;;;;;17.54;65.53;99597.75;5018493;28;20034;-72
2023/06/03 04:03:19;;;;;;;8.77;4.53;;;;;;;17.44;66.21;99601.75;5018761;28;20040;-72
2023/06/03 04:05:46;;;;;;;12.13;4.35;;;;;;;17.31;66.54;99602.28;5036583;28;20072;-72
2023/06/03 04:08:35;;;;;;;9.35;4.18;;;;;;;17.20;66.67;99613.38;5035971;28;20033;-72
2023/06/03 04:11:01;;;;;;;9.90;4.30;;;;;;;17.11;66.92;99604.91;5021692;28;20033;-72
2023/06/03 04:13:27;;;;;;;11.32;4.25;;;;;;;17.07;66.89;99609.53;5036437;28;20025;-72
2023/06/03 04:15:52;;;;;;;9.50;4.65;;;;;;;17.03;67.28;99606.09;5035973;28;20410;-72
2023/06/03 04:18:19;;;;;;;12.10;4.57;;;;;;;16.99;67.47;99607.16;5036299;28;20021;-72
2023/06/03 04:20:45;;;;;;;10.15;4.60;;;;;;;16.92;67.73;99601.19;5035996;28;20120;-72
2023/06/03 04:23:15;;;;;;;12.30;4.27;;;;;;;16.86;67.79;99603.25;5036194;28;20092;-72
2023/06/03 04:25:41;;;;;;;9.30;4.25;;;;;;;16.85;67.68;99598.84;5036780;28;20020;-72
2023/06/03 04:28:07;;;;;;;10.18;4.43;;;;;;;16.85;67.66;99596.19;5036172;28;20037;-72
2023/06/03 04:30:35;;;;;;;11.80;4.50;;;;;;;16.82;67.92;99604.28;5035916;28;20048;-72
2023/06/03 04:33:01;;;;;;;8.98;4.00;;;;;;;16.78;67.92;99603.56;5039293;28;20540;-72
2023/06/03 04:35:26;;;;;;;10.00;4.50;;;;;;;16.77;68.34;99601.84;5040128;28;20033;-72
2023/06/03 04:37:51;;;;;;;14.30;4.30;;;;;;;16.81;67.85;99606.09;5039527;28;20049;-72
2023/06/03 04:40:17;;;;;;;12.23;5.00;;;;;;;16.81;68.09;99611.44;5039742;28;20040;-72
2023/06/03 04:42:43;;;;;;;12.70;4.43;;;;;;;16.77;68.41;99607.16;5039486;28;20029;-72
2023/06/03 04:45:09;;;;;;;9.13;4.10;;;;;;;16.79;68.04;99611.47;5039607;28;20029;-72
2023/06/03 04:47:35;;;;;;;10.10;3.95;;;;;;;16.84;67.98;99611.28;5039303;28;20042;-72
2023/06/03 04:50:04;;;;;;;11.57;4.20;;;;;;;16.86;68.08;99617.41;5021739;28;20074;-72
2023/06/03 04:52:31;;;;;;;11.30;3.87;;;;;;;16.90;67.79;99623.47;5039323;28;20029;-72
2023/06/03 04:54:57;;;;;;;12.57;4.30;;;;;;;16.90;67.91;99619.00;5039546;28;20025;-72
2023/06/03 04:57:22;;;;;;;9.63;4.20;;;;;;;16.91;67.75;99626.06;5039466;28;20029;-72
2023/06/03 04:59:48;;;;;;;8.80;3.67;;;;;;;16.90;67.92;99619.00;5039378;28;20037;-72
2023/06/03 05:02:16;;;;;;;10.73;4.10;;;;;;;16.96;67.91;99614.38;5039337;28;20390;-72
2023/06/03 05:04:42;;;;;;;9.80;4.20;;;;;;;16.99;67.67;99619.59;5038710;28;20025;-72
2023/06/03 05:07:10;;;;;;;11.45;3.80;;;;;;;17.01;67.74;99617.75;5038893;28;20112;-72
2023/06/03 05:09:35;;;;;;;9.32;4.05;;;;;;;17.04;67.96;99614.97;5039267;28;20076;-72
2023/06/03 05:12:01;;;;;;;11.17;3.97;;;;;;;17.11;67.54;99615.56;5039011;28;20025;-72
2023/06/03 05:14:26;;;;;;;11.57;4.03;;;;;;;17.21;67.55;99622.25;5039009;28;20039;-72
2023/06/03 05:16:51;;;;;;;13.33;4.37;;;;;;;17.28;67.50;99614.88;5038827;28;20505;-72
2023/06/03 05:19:17;;;;;;;10.73;4.10;;;;;;;17.31;67.45;99622.72;5038942;28;20096;-72
2023/06/03 05:21:42;;;;;;;12.77;4.40;;;;;;;17.33;67.51;99631.50;5038976;28;20428;-72
2023/06/03 05:24:08;;;;;;;12.93;4.30;;;;;;;17.30;67.97;99628.97;5038654;28;20029;-72
2023/06/03 05:26:33;;;;;;;11.23;4.83;;;;;;;17.31;68.06;99625.38;5038756;28;20053;-72
2023/06/03 05:28:59;;;;;;;15.15;4.93;;;;;;;17.30;67.94;99623.66;5038547;28;20034;-72
2023/06/03 05:31:24;;;;;;;13.87;4.87;;;;;;;17.27;68.35;99623.78;5038741;28;20104;-72
2023/06/03 05:33:49;;;;;;;11.10;4.27;;;;;;;17.24;68.47;99615.91;5020915;28;20032;-72
2023/06/03 05:36:15;;;;;;;12.13;4.80;;;;;;;17.22;68.45;99623.97;5038762;28;20104;-72
2023/06/03 05:38:40;;;;;;;13.90;4.27;;;;;;;17.24;68.66;99623.88;5038451;28;20114;-72
2023/06/03 05:41:06;;;;;;;11.93;4.63;;;;;;;17.30;68.42;99626.31;5038501;28;20061;-72
2023/06/03 05:43:32;;;;;;;12.83;4.90;;;;;;;17.33;68.48;99626.19;5028671;28;20040;-72
2023/06/03 05:45:57;;;;;;;13.95;4.70;;;;;;;17.36;68.31;99626.03;5037775;28;20029;-72
2023/06/03 05:48:23;;;;;;;10.53;4.40;;;;;;;17.41;68.48;99624.03;5024922;28;20080;-72
2023/06/03 05:50:50;;;;;;;13.67;5.00;;;;;;;17.48;67.83;99625.53;5038343;28;20033;-72
2023/06/03 05:53:18;;;;;;;9.90;4.50;;;;;;;17.53;67.72;99637.78;5025112;28;20033;-72
2023/06/03 05:55:44;;;;;;;13.38;4.78;;;;;;;17.59;67.71;99633.03;5038436;28;20037;-72
2023/06/03 05:58:09;;;;;;;13.10;4.10;;;;;;;17.67;67.35;99640.69;5038316;28;20021;-72
2023/06/03 06:00:34;;;;;;;14.63;4.77;;;;;;;17.79;67.08;99640.16;5038604;28;20056;-72
2023/06/03 06:03:00;;;;;;;12.70;5.10;;;;;;;17.87;66.83;99652.25;5038307;28;20378;-72
2023/06/03 06:05:25;;;;;;;13.60;4.40;;;;;;;17.97;66.71;99647.41;5037928;28;20279;-72
2023/06/03 06:07:51;;;;;;;12.03;4.93;;;;;;;17.94;66.33;99649.25;5020224;28;20071;-72
2023/06/03 06:10:16;;;;;;;13.93;4.60;;;;;;;18.02;66.72;99656.06;5038108;28;20029;-72
2023/06/03 06:12:41;;;;;;;12.30;4.33;;;;;;;18.10;66.28;99653.06;5037841;28;20029;-72
2023/06/03 06:15:07;;;;;;;10.50;4.68;;;;;;;18.15;66.59;99643.94;5037815;28;20029;-72
2023/06/03 06:17:33;;;;;;;12.00;4.77;;;;;;;18.22;66.10;99649.84;5037879;28;20041;-72
2023/06/03 06:19:59;;;;;;;9.57;4.97;;;;;;;18.25;66.33;99657.72;5037938;28;20390;-72
2023/06/03 06:22:25;;;;;;;10.38;4.72;;;;;;;18.30;66.30;99660.16;5037483;28;20413;-72
2023/06/03 06:24:50;;;;;;;13.10;4.80;;;;;;;18.39;65.83;99664.19;5037714;28;20025;-72
2023/06/03 06:27:16;;;;;;;11.10;4.57;;;;;;;18.50;65.50;99668.09;5019949;28;20088;-72
2023/06/03 06:29:41;;;;;;;12.67;4.60;;;;;;;18.60;65.52;99673.00;5016373;28;20025;-72
2023/06/03 06:32:09;;;;;;;13.27;4.90;;;;;;;18.62;65.23;99676.47;5036746;28;20414;-72
2023/06/03 06:34:35;;;;;;;11.30;4.60;;;;;;;18.74;65.11;99681.19;5037454;28;20032;-72
2023/06/03 06:37:00;;;;;;;10.20;4.10;;;;;;;18.89;64.70;99679.59;5037394;28;20085;-72
2023/06/03 06:39:35;;;;;;;11.50;4.50;;;;;;;19.03;64.34;99683.44;5037618;28;20033;-72
2023/06/03 06:42:27;;;;;;;11.00;4.90;;;;;;;19.19;64.29;99678.22;5027084;28;20033;-72
2023/06/03 06:44:52;;;;;;;9.55;5.10;;;;;;;19.33;64.14;99678.41;5017256;28;20060;-72
2023/06/03 06:47:25;;;;;;;12.17;5.00;;;;;;;19.47;63.82;99679.50;5037013;28;20053;-72
2023/06/03 06:49:54;;;;;;;9.25;4.22;;;;;;;19.64;63.59;99683.97;5037132;28;20025;-72
2023/06/03 06:52:21;;;;;;;10.52;4.82;;;;;;;19.76;62.89;99686.03;5037087;28;20030;-72
2023/06/03 06:54:47;;;;;;;8.50;4.55;;;;;;;19.87;62.59;99687.25;5037277;28;20477;-72
2023/06/03 06:57:27;;;;;;;9.60;4.87;;;;;;;19.97;61.73;99685.88;5036766;28;20102;-72
2023/06/03 06:59:53;;;;;;;9.10;4.22;;;;;;;20.16;61.30;99687.59;5037134;28;20021;-71
2023/06/03 07:02:21;;;;;;;9.55;4.75;;;;;;;20.36;60.91;99689.19;5038352;28;20113;-72
2023/06/03 07:04:49;;;;;;;10.63;4.75;;;;;;;20.65;60.17;99692.94;5036716;28;20036;-72
2023/06/03 07:07:15;;;;;;;10.17;4.70;;;;;;;20.86;59.54;99692.72;5036753;28;20037;-72
2023/06/03 07:09:41;;;;;;;12.63;4.80;;;;;;;20.99;59.61;99687.53;5037025;28;20061;-72
2023/06/03 07:12:07;;;;;;;9.70;5.10;;;;;;;21.12;59.83;99692.19;5036681;28;20031;-72
2023/06/03 07:14:33;;;;;;;14.02;5.15;;;;;;;21.17;59.84;99690.97;5036992;28;20025;-72
2023/06/03 07:16:58;;;;;;;9.38;5.50;;;;;;;21.14;59.50;99696.50;5036611;28;20083;-72
2023/06/03 07:19:29;;;;;;;9.23;5.27;;;;;;;21.10;59.67;99692.28;5037030;28;20100;-72
2023/06/03 07:21:54;;;;;;;12.55;5.35;;;;;;;21.02;60.30;99691.84;5016026;28;20129;-71
2023/06/03 07:24:20;;;;;;;9.80;5.30;;;;;;;21.13;59.96;99688.56;5028521;28;20056;-72
2023/06/03 07:26:45;;;;;;;13.27;5.17;;;;;;;21.17;59.92;99698.13;5028644;28;20037;-72
2023/06/03 07:29:11;;;;;;;13.15;5.25;;;;;;;21.30;59.28;99693.81;5031563;28;20021;-73
2023/06/03 07:31:36;;;;;;;11.07;5.37;;;;;;;21.42;59.09;99692.22;5035662;28;20072;-73
2023/06/03 07:34:02;;;;;;;9.40;5.27;;;;;;;21.56;58.60;99693.22;5035705;28;20064;-72
2023/06/03 07:36:28;;;;;;;10.85;5.70;;;;;;;21.68;58.14;99695.22;5017291;28;20029;-72
2023/06/03 07:38:53;;;;;;;10.43;4.93;;;;;;;21.82;58.07;99699.75;5036209;28;20040;-71
2023/06/03 07:41:28;;;;;;;9.10;5.27;;;;;;;21.98;57.23;99696.97;5032763;28;20029;-72
2023/06/03 07:43:56;;;;;;;11.43;5.50;;;;;;;22.25;57.04;99696.25;5038629;28;20628;-71
2023/06/03 07:46:35;;;;;;;10.07;5.70;;;;;;;22.29;56.51;99699.59;5035808;28;20489;-72
2023/06/03 07:49:02;;;;;;;11.73;4.90;;;;;;;22.31;56.67;99693.19;5018459;28;20060;-72
2023/06/03 07:51:28;;;;;;;10.77;5.32;;;;;;;22.32;56.92;99702.97;5035600;28;20041;-72
2023/06/03 07:53:55;;;;;;;11.43;6.97;;;;;;;22.29;57.26;99700.44;5036004;28;20097;-72
2023/06/03 07:56:21;;;;;;;20.15;9.68;;;;;;;22.29;57.24;99694.25;5036078;28;20025;-72
2023/06/03 07:58:46;;;;;;;14.07;7.53;;;;;;;22.15;57.32;99703.13;5029351;28;20087;-71
2023/06/03 08:01:15;;;;;;;14.40;6.40;;;;;;;22.01;57.76;99696.78;5031212;28;20052;-72
2023/06/03 08:03:40;;;;;;;11.38;5.82;;;;;;;21.92;57.96;99702.72;5036331;28;20026;-71
2023/06/03 08:06:08;;;;;;;12.23;6.37;;;;;;;21.86;58.46;99700.44;5032068;28;20087;-72
2023/06/03 08:08:33;;;;;;;10.60;6.00;;;;;;;21.88;58.45;99706.56;5012918;28;20025;-71
2023/06/03 08:11:01;;;;;;;13.23;6.23;;;;;;;21.91;58.50;99701.00;5032480;28;20097;-72
2023/06/03 08:13:26;;;;;;;12.20;7.22;;;;;;;22.01;58.45;99701.31;5032670;28;20026;-72
2023/06/03 08:15:52;;;;;;;10.30;5.60;;;;;;;22.14;58.41;99696.06;5039091;28;20037;-70
2023/06/03 08:18:40;;;;;;;10.30;6.00;;;;;;;22.29;58.12;99699.59;5039722;28;20831;-71
2023/06/03 08:21:05;;;;;;;11.23;5.85;;;;;;;22.46;57.63;99706.59;5028880;28;20021;-71
2023/06/03 08:23:32;;;;;;;11.50;6.13;;;;;;;22.50;57.96;99692.06;5039329;28;20037;-71
2023/06/03 08:25:59;;;;;;;13.13;6.47;;;;;;;22.62;57.56;99695.78;5039524;28;20033;-71
2023/06/03 08:28:24;;;;;;;11.95;6.20;;;;;;;22.69;57.25;99697.13;5038945;28;20402;-70
2023/06/03 08:30:51;;;;;;;10.10;5.87;;;;;;;22.96;57.19;99690.06;5021476;28;20018;-71
2023/06/03 08:33:16;;;;;;;9.25;6.15;;;;;;;23.34;56.66;99689.38;5036045;28;20025;-71
2023/06/03 08:35:43;;;;;;;13.77;5.30;;;;;;;23.71;55.99;99692.25;5039484;28;20041;-71
2023/06/03 08:38:09;;;;;;;11.95;5.75;;;;;;;24.03;55.44;99689.22;5039087;28;20116;-71
2023/06/03 08:40:42;;;;;;;9.82;5.80;;;;;;;24.22;54.86;99688.78;5037898;28;20057;-73
2023/06/03 08:43:08;;;;;;;11.27;5.80;;;;;;;24.48;54.70;99687.91;5044504;28;20116;-71
2023/06/03 08:45:48;;;;;;;13.63;5.70;;;;;;;24.63;54.51;99685.94;5039426;28;20064;-71
2023/06/03 08:48:17;;;;;;;11.37;6.10;;;;;;;24.83;53.67;99686.31;5038915;28;20095;-72
2023/06/03 08:50:49;;;;;;;10.25;5.82;;;;;;;24.93;53.58;99684.69;5035836;28;20650;-71
2023/06/03 08:53:15;;;;;;;11.18;6.78;;;;;;;24.98;52.97;99687.06;5039119;28;20543;-71
2023/06/03 08:55:43;;;;;;;10.88;6.63;;;;;;;25.07;53.00;99691.75;5039297;28;20026;-70
2023/06/03 08:58:32;;;;;;;13.40;6.60;;;;;;;25.22;53.21;99687.91;5039239;28;20025;-71
2023/06/03 09:01:01;;;;;;;9.02;5.53;;;;;;;25.45;52.84;99688.03;5039764;28;20025;-71
2023/06/03 09:03:28;;;;;;;13.98;5.22;;;;;;;25.64;52.59;99689.31;5039090;28;20033;-71
2023/06/03 09:05:54;;;;;;;10.45;5.25;;;;;;;25.80;52.27;99681.78;5038911;28;20021;-71
2023/06/03 09:08:20;;;;;;;11.63;6.15;;;;;;;25.91;51.64;99688.16;5038932;28;20502;-70
2023/06/03 09:10:48;;;;;;;10.97;5.33;;;;;;;26.00;51.60;99678.50;5039834;28;20028;-72
2023/06/03 09:13:17;;;;;;;10.07;5.90;;;;;;;26.05;51.26;99690.66;5022522;28;20052;-72
2023/06/03 09:15:43;;;;;;;12.65;6.30;;;;;;;26.09;51.19;99681.31;5022727;28;20029;-71
2023/06/03 09:18:10;;;;;;;10.65;5.68;;;;;;;26.22;51.36;99675.84;5023217;28;20059;-71
2023/06/03 09:20:36;;;;;;;9.98;5.72;;;;;;;26.22;51.36;99683.09;5039837;28;20036;-72
2023/06/03 09:23:02;;;;;;;10.10;5.20;;;;;;;26.31;51.03;99678.81;5022851;28;20037;-71
2023/06/03 09:25:28;;;;;;;9.63;5.72;;;;;;;26.50;50.93;99678.19;5020802;28;20483;-71
2023/06/03 09:27:55;;;;;;;11.82;5.65;;;;;;;26.69;50.46;99671.31;5039357;28;20053;-71
2023/06/03 09:30:20;;;;;;;8.93;5.57;;;;;;;26.72;49.93;99673.75;5020510;28;20047;-72
2023/06/03 09:32:46;;;;;;;12.85;6.07;;;;;;;26.87;49.25;99669.81;5021752;28;20029;-72
2023/06/03 09:35:12;;;;;;;11.63;5.93;;;;;;;26.87;49.32;99669.81;5021230;28;20032;-71
2023/06/03 09:37:38;;;;;;;9.88;5.20;;;;;;;26.92;48.47;99672.13;5039233;28;20024;-71
2023/06/03 09:40:05;;;;;;;8.47;4.27;;;;;;;27.00;48.57;99664.25;5038794;28;20025;-71
2023/06/03 09:42:41;;;;;;;10.48;4.90;;;;;;;27.16;48.53;99665.69;5038805;28;20032;-71
2023/06/03 09:45:07;;;;;;;7.68;4.32;;;;;;;27.32;47.12;99668.81;5020807;28;20113;-72
2023/06/03 09:47:38;;;;;;;10.30;4.90;;;;;;;27.36;47.30;99654.03;5021052;28;20112;-71
2023/06/03 09:50:05;;;;;;;8.75;3.90;;;;;;;27.51;46.55;99665.44;5038786;28;20105;-71
2023/06/03 09:52:35;;;;;;;7.75;3.50;;;;;;;27.57;45.12;99660.47;5038721;28;20028;-71
2023/06/03 09:55:09;;;;;;;6.75;3.70;;;;;;;27.58;42.53;99662.19;5008311;28;20037;-72
2023/06/03 09:57:36;;;;;;;8.23;3.70;;;;;;;27.67;43.52;99666.84;5020823;28;20033;-71
2023/06/03 10:00:09;;;;;;;10.30;3.97;;;;;;;27.72;43.80;99659.19;5038649;28;20075;-71
2023/06/03 10:02:38;;;;;;;8.18;3.97;;;;;;;27.66;42.48;99665.13;5024239;28;20033;-71
2023/06/03 10:05:04;;;;;;;6.68;3.67;;;;;;;27.67;42.89;99655.16;5048408;28;20029;-72
2023/06/03 10:07:30;;;;;;;10.85;5.28;;;;;;;27.73;42.83;99654.59;5020091;28;20022;-71
2023/06/03 10:10:06;;;;;;;9.82;5.18;;;;;;;27.67;42.61;99653.31;5038165;28;20502;-72
2023/06/03 10:12:32;;;;;;;9.03;4.57;;;;;;;27.87;42.54;99665.09;5038111;28;20048;-71
2023/06/03 10:15:00;;;;;;;8.88;4.35;;;;;;;27.90;42.54;99658.59;5020690;28;20025;-71
2023/06/03 10:17:26;;;;;;;10.13;4.53;;;;;;;27.82;42.62;99661.94;5020841;28;20026;-72
2023/06/03 10:19:52;;;;;;;12.35;5.10;;;;;;;27.92;42.48;99657.44;5020826;28;20549;-72
2023/06/03 10:22:19;;;;;;;10.20;4.75;;;;;;;28.07;42.29;99657.09;5037947;28;20159;-71
2023/06/03 10:24:47;;;;;;;8.73;5.47;;;;;;;28.11;41.85;99658.53;5037961;28;20029;-71
2023/06/03 10:27:15;;;;;;;10.18;4.78;;;;;;;28.20;41.46;99654.19;5038463;28;20037;-71
2023/06/03 10:29:40;;;;;;;10.90;5.13;;;;;;;28.29;41.64;99645.25;5038504;28;20029;-72
2023/06/03 10:32:08;;;;;;;7.80;3.90;;;;;;;28.35;41.82;99647.44;5038117;28;20029;-71
2023/06/03 10:34:41;;;;;;;8.38;4.50;;;;;;;28.51;42.17;99648.75;5020929;28;20115;-72
2023/06/03 10:37:08;;;;;;;9.48;4.07;;;;;;;28.59;41.61;99638.09;5020391;28;20040;-71
2023/06/03 10:39:33;;;;;;;7.32;4.20;;;;;;;28.67;41.54;99636.53;5038497;28;20474;-71
2023/06/03 10:42:01;;;;;;;8.13;4.00;;;;;;;28.68;41.26;99635.53;5037871;28;20049;-71
2023/06/03 10:44:27;;;;;;;6.40;3.67;;;;;;;28.91;41.04;99638.88;5020412;28;20085;-72
2023/06/03 10:47:01;;;;;;;8.45;3.70;;;;;;;29.01;39.77;99634.34;5037947;28;20095;-71
2023/06/03 10:49:33;;;;;;;6.68;3.58;;;;;;;29.02;39.36;99625.22;5020137;28;20032;-71
2023/06/03 10:52:36;;;;;;;6.93;4.30;;;;;;;29.03;39.24;99634.19;5038099;28;20396;-71
2023/06/03 10:55:25;;;;;;;7.93;3.97;;;;;;;28.99;40.13;99627.34;5025903;28;20029;-71
2023/06/03 10:58:00;;;;;;;7.18;4.10;;;;;;;29.06;39.13;99614.97;5037885;28;20083;-71
2023/06/03 11:00:55;;;;;;;8.00;3.85;;;;;;;28.93;38.56;99624.22;5037867;28;20029;-71
2023/06/03 11:03:22;;;;;;;7.20;4.00;;;;;;;29.27;39.51;99614.81;5033554;28;20033;-71
2023/06/03 11:05:48;;;;;;;7.30;3.97;;;;;;;29.45;39.28;99612.22;5040782;28;20063;-71
2023/06/03 11:08:34;;;;;;;6.75;3.78;;;;;;;29.59;39.35;99618.22;5037963;28;20044;-72
2023/06/03 11:10:59;;;;;;;9.98;4.05;;;;;;;29.71;38.38;99611.63;5037559;28;20021;-71
2023/06/03 11:13:40;;;;;;;127.90;88.17;;;;;;;29.84;38.29;99613.16;5019803;28;20087;-71
2023/06/03 11:16:06;;;;;;;31.58;24.60;;;;;;;30.01;37.32;99593.41;5025654;28;20060;-71
2023/06/03 11:18:31;;;;;;;9.63;5.17;;;;;;;30.12;37.82;99605.94;5037704;28;20033;-71
2023/06/03 11:20:58;;;;;;;14.90;9.38;;;;;;;30.24;38.07;99597.59;5037984;28;20033;-71
2023/06/03 11:23:43;;;;;;;11.18;7.32;;;;;;;30.30;38.16;99597.00;5037371;28;20543;-71
2023/06/03 11:26:35;;;;;;;10.40;4.50;;;;;;;30.39;37.31;99589.81;5037467;28;20057;-72
2023/06/03 11:29:04;;;;;;;9.05;4.63;;;;;;;30.46;36.72;99582.75;5037304;28;20071;-71
2023/06/03 11:31:32;;;;;;;31.05;20.48;;;;;;;30.48;37.15;99583.44;5037779;28;20516;-72
2023/06/03 11:34:25;;;;;;;17.73;10.68;;;;;;;30.50;36.34;99585.00;5038148;28;20029;-71